sensor_id;sensor_type;location;lat;lon;timestamp;temperature;humidity
54558;DHT22;40452;50.080;20.040;2023-03-21T04:03:54;20.80;45.00
54558;DHT22;40452;50.080;20.040;2023-03-21T04:06:19;20.90;45.60
54558;DHT22;40452;50.080;20.040;2023-03-21T04:08:46;20.80;45.60
54558;DHT22;40452;50.080;20.040;2023-03-21T04:11:13;20.90;45.70
54558;DHT22;40452;50.080;20.040;2023-03-21T04:13:42;20.90;46.00
54558;DHT22;40452;50.080;20.040;2023-03-21T04:16:09;20.90;46.00
54558;DHT22;40452;50.080;20.040;2023-03-21T04:18:36;20.90;46.00
54558;DHT22;40452;50.080;20.040;2023-03-21T04:21:09;20.90;45.90
54558;DHT22;40452;50.080;20.040;2023-03-21T04:23:35;20.90;45.90
54558;DHT22;40452;50.080;20.040;2023-03-21T04:26:02;21.00;45.90
54558;DHT22;40452;50.080;20.040;2023-03-21T04:28:27;21.00;46.00
54558;DHT22;40452;50.080;20.040;2023-03-21T04:30:53;21.10;46.10
54558;DHT22;40452;50.080;20.040;2023-03-21T04:33:22;21.00;46.00
54558;DHT22;40452;50.080;20.040;2023-03-21T04:35:50;21.10;46.00
54558;DHT22;40452;50.080;20.040;2023-03-21T04:38:25;21.00;45.90
54558;DHT22;40452;50.080;20.040;2023-03-21T04:40:55;21.10;45.80
54558;DHT22;40452;50.080;20.040;2023-03-21T04:43:21;21.00;45.70
54558;DHT22;40452;50.080;20.040;2023-03-21T04:45:48;21.10;45.70
54558;DHT22;40452;50.080;20.040;2023-03-21T04:48:13;21.10;45.70
54558;DHT22;40452;50.080;20.040;2023-03-21T04:50:40;21.10;45.70
54558;DHT22;40452;50.080;20.040;2023-03-21T04:53:05;21.00;45.60
54558;DHT22;40452;50.080;20.040;2023-03-21T04:55:31;20.90;45.60
54558;DHT22;40452;50.080;20.040;2023-03-21T04:57:57;21.00;45.50
54558;DHT22;40452;50.080;20.040;2023-03-21T05:00:22;21.00;45.60
54558;DHT22;40452;50.080;20.040;2023-03-21T05:02:49;21.00;45.60
54558;DHT22;40452;50.080;20.040;2023-03-21T05:05:18;21.00;45.50
54558;DHT22;40452;50.080;20.040;2023-03-21T05:07:44;21.00;45.50
54558;DHT22;40452;50.080;20.040;2023-03-21T05:10:13;21.00;45.50
54558;DHT22;40452;50.080;20.040;2023-03-21T05:12:40;21.00;45.50
54558;DHT22;40452;50.080;20.040;2023-03-21T05:15:06;21.00;45.40
54558;DHT22;40452;50.080;20.040;2023-03-21T05:17:32;21.00;45.40
54558;DHT22;40452;50.080;20.040;2023-03-21T05:19:58;21.00;45.40
54558;DHT22;40452;50.080;20.040;2023-03-21T05:22:24;21.00;45.40
54558;DHT22;40452;50.080;20.040;2023-03-21T05:24:51;21.00;45.40
54558;DHT22;40452;50.080;20.040;2023-03-21T05:27:20;21.00;45.40
54558;DHT22;40452;50.080;20.040;2023-03-21T05:30:04;21.00;45.30
54558;DHT22;40452;50.080;20.040;2023-03-21T05:32:31;21.00;45.50
54558;DHT22;40452;50.080;20.040;2023-03-21T05:34:56;21.00;45.70
54558;DHT22;40452;50.080;20.040;2023-03-21T05:37:22;21.00;45.80
54558;DHT22;40452;50.080;20.040;2023-03-21T05:39:48;21.00;45.90
54558;DHT22;40452;50.080;20.040;2023-03-21T05:42:14;21.00;45.90
54558;DHT22;40452;50.080;20.040;2023-03-21T05:44:40;21.00;45.90
54558;DHT22;40452;50.080;20.040;2023-03-21T05:47:06;21.00;46.00
54558;DHT22;40452;50.080;20.040;2023-03-21T05:49:31;21.00;46.00
54558;DHT22;40452;50.080;20.040;2023-03-21T05:51:57;21.00;46.00
54558;DHT22;40452;50.080;20.040;2023-03-21T05:54:23;21.00;46.00
54558;DHT22;40452;50.080;20.040;2023-03-21T05:56:48;21.00;46.00
54558;DHT22;40452;50.080;20.040;2023-03-21T05:59:14;21.00;46.20
54558;DHT22;40452;50.080;20.040;2023-03-21T06:01:40;21.00;46.10
54558;DHT22;40452;50.080;20.040;2023-03-21T06:04:06;21.10;46.10
54558;DHT22;40452;50.080;20.040;2023-03-21T06:06:32;21.00;46.00
54558;DHT22;40452;50.080;20.040;2023-03-21T06:08:57;21.00;46.10
54558;DHT22;40452;50.080;20.040;2023-03-21T06:11:46;21.10;46.10
54558;DHT22;40452;50.080;20.040;2023-03-21T06:14:11;21.00;46.00
54558;DHT22;40452;50.080;20.040;2023-03-21T06:16:40;21.00;45.90
54558;DHT22;40452;50.080;20.040;2023-03-21T06:19:05;21.00;45.90
54558;DHT22;40452;50.080;20.040;2023-03-21T06:21:31;21.00;45.90
54558;DHT22;40452;50.080;20.040;2023-03-21T06:23:56;21.00;45.90
54558;DHT22;40452;50.080;20.040;2023-03-21T06:26:22;21.00;45.90
54558;DHT22;40452;50.080;20.040;2023-03-21T06:28:51;21.10;46.00
54558;DHT22;40452;50.080;20.040;2023-03-21T06:31:17;20.40;46.10
54558;DHT22;40452;50.080;20.040;2023-03-21T06:33:43;19.40;47.60
54558;DHT22;40452;50.080;20.040;2023-03-21T06:36:09;19.00;48.80
54558;DHT22;40452;50.080;20.040;2023-03-21T06:38:35;18.70;49.40
54558;DHT22;40452;50.080;20.040;2023-03-21T06:41:03;18.40;49.80
54558;DHT22;40452;50.080;20.040;2023-03-21T06:43:29;18.20;50.10
54558;DHT22;40452;50.080;20.040;2023-03-21T06:45:56;18.00;50.70
54558;DHT22;40452;50.080;20.040;2023-03-21T06:48:22;17.70;51.30
54558;DHT22;40452;50.080;20.040;2023-03-21T06:50:48;17.70;51.70
54558;DHT22;40452;50.080;20.040;2023-03-21T06:53:14;17.70;51.20
54558;DHT22;40452;50.080;20.040;2023-03-21T06:55:40;17.80;51.20
54558;DHT22;40452;50.080;20.040;2023-03-21T06:58:05;17.50;51.80
54558;DHT22;40452;50.080;20.040;2023-03-21T07:00:31;17.30;52.50
54558;DHT22;40452;50.080;20.040;2023-03-21T07:02:57;17.30;52.50
54558;DHT22;40452;50.080;20.040;2023-03-21T07:05:22;17.30;52.50
54558;DHT22;40452;50.080;20.040;2023-03-21T07:07:48;17.20;52.70
54558;DHT22;40452;50.080;20.040;2023-03-21T07:10:14;17.10;53.00
54558;DHT22;40452;50.080;20.040;2023-03-21T07:12:39;17.00;53.80
54558;DHT22;40452;50.080;20.040;2023-03-21T07:15:07;17.00;53.60
54558;DHT22;40452;50.080;20.040;2023-03-21T07:17:33;16.90;53.80
54558;DHT22;40452;50.080;20.040;2023-03-21T07:19:59;16.80;53.70
54558;DHT22;40452;50.080;20.040;2023-03-21T07:22:24;16.70;54.40
54558;DHT22;40452;50.080;20.040;2023-03-21T07:24:50;16.80;53.90
54558;DHT22;40452;50.080;20.040;2023-03-21T07:27:18;16.80;53.60
54558;DHT22;40452;50.080;20.040;2023-03-21T07:29:43;17.20;53.00
54558;DHT22;40452;50.080;20.040;2023-03-21T07:32:12;17.70;51.80
54558;DHT22;40452;50.080;20.040;2023-03-21T07:34:38;18.10;51.20
54558;DHT22;40452;50.080;20.040;2023-03-21T07:37:04;18.40;50.70
54558;DHT22;40452;50.080;20.040;2023-03-21T07:39:31;18.60;50.30
54558;DHT22;40452;50.080;20.040;2023-03-21T07:41:57;18.70;50.00
54558;DHT22;40452;50.080;20.040;2023-03-21T07:44:23;18.80;49.60
54558;DHT22;40452;50.080;20.040;2023-03-21T07:46:49;19.00;49.60
54558;DHT22;40452;50.080;20.040;2023-03-21T07:49:15;19.00;49.30
54558;DHT22;40452;50.080;20.040;2023-03-21T07:51:41;19.10;49.20
54558;DHT22;40452;50.080;20.040;2023-03-21T07:54:06;19.20;49.10
54558;DHT22;40452;50.080;20.040;2023-03-21T07:56:32;19.30;48.90
54558;DHT22;40452;50.080;20.040;2023-03-21T07:58:58;19.30;48.80
54558;DHT22;40452;50.080;20.040;2023-03-21T08:01:24;19.40;48.70
54558;DHT22;40452;50.080;20.040;2023-03-21T08:03:50;19.40;48.70
54558;DHT22;40452;50.080;20.040;2023-03-21T08:06:18;19.50;48.50
54558;DHT22;40452;50.080;20.040;2023-03-21T08:08:44;19.60;48.40
54558;DHT22;40452;50.080;20.040;2023-03-21T08:11:11;19.60;48.40
54558;DHT22;40452;50.080;20.040;2023-03-21T08:13:36;19.60;48.30
54558;DHT22;40452;50.080;20.040;2023-03-21T08:16:02;19.70;48.20
54558;DHT22;40452;50.080;20.040;2023-03-21T08:18:27;19.70;48.30
54558;DHT22;40452;50.080;20.040;2023-03-21T08:20:55;19.80;48.50
54558;DHT22;40452;50.080;20.040;2023-03-21T15:58:51;20.50;45.20
54558;DHT22;40452;50.080;20.040;2023-03-21T16:01:19;20.50;45.20
54558;DHT22;40452;50.080;20.040;2023-03-21T16:03:54;20.60;45.20
54558;DHT22;40452;50.080;20.040;2023-03-21T18:44:17;20.50;44.70
54558;DHT22;40452;50.080;20.040;2023-03-21T18:46:43;20.50;45.30
54558;DHT22;40452;50.080;20.040;2023-03-21T18:49:13;20.50;45.20
54558;DHT22;40452;50.080;20.040;2023-03-21T18:51:38;20.50;46.00
54558;DHT22;40452;50.080;20.040;2023-03-21T18:54:04;20.50;45.20
54558;DHT22;40452;50.080;20.040;2023-03-21T18:56:32;20.60;45.30
54558;DHT22;40452;50.080;20.040;2023-03-21T18:59:02;20.60;45.30
54558;DHT22;40452;50.080;20.040;2023-03-21T19:01:27;20.60;45.30
54558;DHT22;40452;50.080;20.040;2023-03-21T19:03:53;20.60;45.30
54558;DHT22;40452;50.080;20.040;2023-03-21T19:06:27;20.60;45.30
54558;DHT22;40452;50.080;20.040;2023-03-21T19:08:53;20.60;45.30
54558;DHT22;40452;50.080;20.040;2023-03-21T19:11:18;20.60;45.30
54558;DHT22;40452;50.080;20.040;2023-03-21T19:13:49;20.60;45.40
54558;DHT22;40452;50.080;20.040;2023-03-21T19:16:17;20.60;45.40
54558;DHT22;40452;50.080;20.040;2023-03-21T19:18:43;20.60;45.30
54558;DHT22;40452;50.080;20.040;2023-03-21T19:21:09;20.60;45.30
54558;DHT22;40452;50.080;20.040;2023-03-21T19:23:35;20.60;45.30
54558;DHT22;40452;50.080;20.040;2023-03-21T19:26:01;20.60;45.30
54558;DHT22;40452;50.080;20.040;2023-03-21T19:28:46;20.60;45.40
54558;DHT22;40452;50.080;20.040;2023-03-21T19:31:12;20.70;45.40
54558;DHT22;40452;50.080;20.040;2023-03-21T19:33:37;20.70;45.40
54558;DHT22;40452;50.080;20.040;2023-03-21T19:36:03;20.70;45.40
54558;DHT22;40452;50.080;20.040;2023-03-21T19:38:29;20.70;45.50
54558;DHT22;40452;50.080;20.040;2023-03-21T19:40:59;20.70;45.50
54558;DHT22;40452;50.080;20.040;2023-03-21T19:43:24;20.70;45.60
54558;DHT22;40452;50.080;20.040;2023-03-21T19:45:50;20.70;45.60
54558;DHT22;40452;50.080;20.040;2023-03-21T19:48:17;20.70;45.70
54558;DHT22;40452;50.080;20.040;2023-03-21T19:50:42;20.70;45.60
54558;DHT22;40452;50.080;20.040;2023-03-21T19:53:11;20.70;45.60
54558;DHT22;40452;50.080;20.040;2023-03-21T19:55:36;20.70;45.60
54558;DHT22;40452;50.080;20.040;2023-03-21T19:58:05;20.70;45.60
54558;DHT22;40452;50.080;20.040;2023-03-21T20:00:35;20.80;45.70
54558;DHT22;40452;50.080;20.040;2023-03-21T20:03:01;20.80;45.70
54558;DHT22;40452;50.080;20.040;2023-03-21T20:05:27;20.70;45.70
54558;DHT22;40452;50.080;20.040;2023-03-21T20:07:53;20.70;45.70
54558;DHT22;40452;50.080;20.040;2023-03-21T20:10:24;20.70;45.60
54558;DHT22;40452;50.080;20.040;2023-03-21T20:12:52;20.70;45.70
